sensor_id;sensor_type;location;lat;lon;timestamp;P1;durP1;ratioP1;P2;durP2;ratioP2
17424;SDS011;8830;50.978;5.058;2023-03-05T00:00:12;6.83;;;3.50;;
17424;SDS011;8830;50.978;5.058;2023-03-05T00:02:40;5.10;;;3.23;;
17424;SDS011;8830;50.978;5.058;2023-03-05T00:05:08;6.73;;;3.63;;
17424;SDS011;8830;50.978;5.058;2023-03-05T00:07:35;4.70;;;3.00;;
17424;SDS011;8830;50.978;5.058;2023-03-05T00:10:03;4.80;;;3.10;;
17424;SDS011;8830;50.978;5.058;2023-03-05T00:12:33;4.47;;;2.83;;
17424;SDS011;8830;50.978;5.058;2023-03-05T00:15:00;4.93;;;3.63;;
17424;SDS011;8830;50.978;5.058;2023-03-05T00:17:30;4.63;;;2.70;;
17424;SDS011;8830;50.978;5.058;2023-03-05T00:19:57;5.83;;;3.23;;
17424;SDS011;8830;50.978;5.058;2023-03-05T00:22:24;4.63;;;2.70;;
17424;SDS011;8830;50.978;5.058;2023-03-05T00:24:52;4.90;;;3.23;;
17424;SDS011;8830;50.978;5.058;2023-03-05T00:27:19;6.37;;;3.10;;
17424;SDS011;8830;50.978;5.058;2023-03-05T00:29:47;6.50;;;3.23;;
17424;SDS011;8830;50.978;5.058;2023-03-05T00:32:14;4.27;;;2.70;;
17424;SDS011;8830;50.978;5.058;2023-03-05T00:34:41;3.67;;;3.27;;
17424;SDS011;8830;50.978;5.058;2023-03-05T00:37:10;5.20;;;3.00;;
17424;SDS011;8830;50.978;5.058;2023-03-05T00:39:37;4.37;;;2.97;;
17424;SDS011;8830;50.978;5.058;2023-03-05T00:42:04;5.77;;;3.63;;
17424;SDS011;8830;50.978;5.058;2023-03-05T00:44:34;8.60;;;3.47;;
17424;SDS011;8830;50.978;5.058;2023-03-05T00:47:02;5.47;;;3.27;;
17424;SDS011;8830;50.978;5.058;2023-03-05T00:49:30;7.03;;;3.00;;
17424;SDS011;8830;50.978;5.058;2023-03-05T00:52:00;7.33;;;3.20;;
17424;SDS011;8830;50.978;5.058;2023-03-05T00:54:28;3.10;;;2.80;;
17424;SDS011;8830;50.978;5.058;2023-03-05T00:56:56;6.17;;;3.30;;
17424;SDS011;8830;50.978;5.058;2023-03-05T00:59:23;6.30;;;3.30;;
17424;SDS011;8830;50.978;5.058;2023-03-05T01:01:50;4.20;;;3.00;;
17424;SDS011;8830;50.978;5.058;2023-03-05T01:04:18;4.27;;;3.40;;
17424;SDS011;8830;50.978;5.058;2023-03-05T01:06:45;11.47;;;3.60;;
17424;SDS011;8830;50.978;5.058;2023-03-05T01:09:12;8.47;;;3.10;;
17424;SDS011;8830;50.978;5.058;2023-03-05T01:11:42;6.93;;;3.13;;
17424;SDS011;8830;50.978;5.058;2023-03-05T01:14:09;8.63;;;3.53;;
17424;SDS011;8830;50.978;5.058;2023-03-05T01:16:37;6.80;;;3.57;;
17424;SDS011;8830;50.978;5.058;2023-03-05T01:19:04;7.33;;;3.43;;
17424;SDS011;8830;50.978;5.058;2023-03-05T01:21:32;7.10;;;3.07;;
17424;SDS011;8830;50.978;5.058;2023-03-05T01:23:59;5.60;;;2.93;;
17424;SDS011;8830;50.978;5.058;2023-03-05T01:26:27;5.33;;;3.07;;
17424;SDS011;8830;50.978;5.058;2023-03-05T01:28:54;10.10;;;3.17;;
17424;SDS011;8830;50.978;5.058;2023-03-05T01:31:21;5.50;;;2.90;;
17424;SDS011;8830;50.978;5.058;2023-03-05T01:33:50;6.63;;;3.20;;
17424;SDS011;8830;50.978;5.058;2023-03-05T01:36:18;12.60;;;3.17;;
17424;SDS011;8830;50.978;5.058;2023-03-05T01:38:47;8.37;;;2.63;;
17424;SDS011;8830;50.978;5.058;2023-03-05T01:41:15;6.50;;;3.20;;
17424;SDS011;8830;50.978;5.058;2023-03-05T01:43:44;5.80;;;2.70;;
17424;SDS011;8830;50.978;5.058;2023-03-05T01:46:21;6.10;;;3.00;;
17424;SDS011;8830;50.978;5.058;2023-03-05T01:48:55;8.70;;;3.03;;
17424;SDS011;8830;50.978;5.058;2023-03-05T01:51:29;4.93;;;2.80;;
17424;SDS011;8830;50.978;5.058;2023-03-05T01:53:59;7.27;;;2.83;;
17424;SDS011;8830;50.978;5.058;2023-03-05T01:56:27;6.23;;;3.30;;
17424;SDS011;8830;50.978;5.058;2023-03-05T01:58:57;8.67;;;3.30;;
17424;SDS011;8830;50.978;5.058;2023-03-05T02:01:28;7.43;;;3.10;;
17424;SDS011;8830;50.978;5.058;2023-03-05T02:03:59;9.07;;;3.30;;
17424;SDS011;8830;50.978;5.058;2023-03-05T02:06:27;4.60;;;3.17;;
17424;SDS011;8830;50.978;5.058;2023-03-05T02:08:54;4.30;;;2.97;;
17424;SDS011;8830;50.978;5.058;2023-03-05T02:13:53;7.30;;;3.57;;
17424;SDS011;8830;50.978;5.058;2023-03-05T02:16:22;8.87;;;3.87;;
17424;SDS011;8830;50.978;5.058;2023-03-05T02:18:51;10.40;;;3.30;;
17424;SDS011;8830;50.978;5.058;2023-03-05T02:21:27;8.00;;;3.57;;
17424;SDS011;8830;50.978;5.058;2023-03-05T02:24:00;6.33;;;3.97;;
17424;SDS011;8830;50.978;5.058;2023-03-05T02:26:27;7.87;;;3.80;;
17424;SDS011;8830;50.978;5.058;2023-03-05T02:28:56;10.80;;;3.70;;
17424;SDS011;8830;50.978;5.058;2023-03-05T02:31:25;5.83;;;3.77;;
17424;SDS011;8830;50.978;5.058;2023-03-05T02:33:56;16.13;;;4.07;;
17424;SDS011;8830;50.978;5.058;2023-03-05T02:36:23;4.77;;;3.80;;
17424;SDS011;8830;50.978;5.058;2023-03-05T02:38:52;5.10;;;3.80;;
17424;SDS011;8830;50.978;5.058;2023-03-05T02:41:23;7.50;;;4.17;;
17424;SDS011;8830;50.978;5.058;2023-03-05T02:43:50;6.33;;;3.77;;
17424;SDS011;8830;50.978;5.058;2023-03-05T02:46:17;5.57;;;4.17;;
17424;SDS011;8830;50.978;5.058;2023-03-05T02:48:44;6.77;;;4.20;;
17424;SDS011;8830;50.978;5.058;2023-03-05T02:51:10;10.80;;;4.73;;
17424;SDS011;8830;50.978;5.058;2023-03-05T02:53:38;8.33;;;4.30;;
17424;SDS011;8830;50.978;5.058;2023-03-05T02:56:07;11.83;;;4.23;;
17424;SDS011;8830;50.978;5.058;2023-03-05T02:58:36;6.57;;;4.33;;
17424;SDS011;8830;50.978;5.058;2023-03-05T03:01:03;6.17;;;4.33;;
17424;SDS011;8830;50.978;5.058;2023-03-05T03:03:30;9.93;;;4.03;;
17424;SDS011;8830;50.978;5.058;2023-03-05T03:05:58;6.40;;;4.10;;
17424;SDS011;8830;50.978;5.058;2023-03-05T03:08:25;7.23;;;4.23;;
17424;SDS011;8830;50.978;5.058;2023-03-05T03:10:52;7.60;;;4.07;;
17424;SDS011;8830;50.978;5.058;2023-03-05T03:13:22;7.03;;;4.07;;
17424;SDS011;8830;50.978;5.058;2023-03-05T03:15:50;8.17;;;4.50;;
17424;SDS011;8830;50.978;5.058;2023-03-05T03:18:28;4.77;;;4.20;;
17424;SDS011;8830;50.978;5.058;2023-03-05T03:20:55;5.53;;;4.17;;
17424;SDS011;8830;50.978;5.058;2023-03-05T03:23:22;9.50;;;3.87;;
17424;SDS011;8830;50.978;5.058;2023-03-05T03:25:53;8.37;;;4.27;;
17424;SDS011;8830;50.978;5.058;2023-03-05T03:28:24;9.63;;;4.33;;
17424;SDS011;8830;50.978;5.058;2023-03-05T03:30:51;6.20;;;3.97;;
17424;SDS011;8830;50.978;5.058;2023-03-05T03:33:19;8.67;;;4.50;;
17424;SDS011;8830;50.978;5.058;2023-03-05T03:35:46;5.43;;;3.80;;
17424;SDS011;8830;50.978;5.058;2023-03-05T03:38:13;7.57;;;4.00;;
17424;SDS011;8830;50.978;5.058;2023-03-05T03:40:43;5.27;;;4.00;;
17424;SDS011;8830;50.978;5.058;2023-03-05T03:43:10;7.60;;;4.10;;
17424;SDS011;8830;50.978;5.058;2023-03-05T03:45:40;7.77;;;4.70;;
17424;SDS011;8830;50.978;5.058;2023-03-05T03:48:08;6.53;;;4.70;;
17424;SDS011;8830;50.978;5.058;2023-03-05T03:50:37;6.67;;;4.43;;
17424;SDS011;8830;50.978;5.058;2023-03-05T03:53:04;7.63;;;4.67;;
17424;SDS011;8830;50.978;5.058;2023-03-05T03:55:31;6.73;;;4.97;;
17424;SDS011;8830;50.978;5.058;2023-03-05T03:57:58;7.43;;;4.40;;
17424;SDS011;8830;50.978;5.058;2023-03-05T04:00:26;7.03;;;4.40;;
17424;SDS011;8830;50.978;5.058;2023-03-05T04:02:57;6.90;;;4.40;;
17424;SDS011;8830;50.978;5.058;2023-03-05T04:05:28;7.07;;;4.17;;
17424;SDS011;8830;50.978;5.058;2023-03-05T04:07:55;7.97;;;4.90;;
17424;SDS011;8830;50.978;5.058;2023-03-05T04:10:24;9.17;;;4.20;;
17424;SDS011;8830;50.978;5.058;2023-03-05T04:12:51;7.20;;;4.30;;
17424;SDS011;8830;50.978;5.058;2023-03-05T04:15:18;10.67;;;4.20;;
17424;SDS011;8830;50.978;5.058;2023-03-05T04:17:45;9.57;;;4.63;;
17424;SDS011;8830;50.978;5.058;2023-03-05T04:20:14;14.80;;;6.83;;
17424;SDS011;8830;50.978;5.058;2023-03-05T04:22:44;5.80;;;4.77;;
17424;SDS011;8830;50.978;5.058;2023-03-05T04:25:14;8.83;;;4.83;;
17424;SDS011;8830;50.978;5.058;2023-03-05T04:27:41;5.17;;;4.40;;
17424;SDS011;8830;50.978;5.058;2023-03-05T04:30:08;7.17;;;4.93;;
17424;SDS011;8830;50.978;5.058;2023-03-05T04:32:38;12.23;;;4.90;;
17424;SDS011;8830;50.978;5.058;2023-03-05T04:35:05;9.13;;;5.10;;
17424;SDS011;8830;50.978;5.058;2023-03-05T04:37:34;10.47;;;5.40;;
17424;SDS011;8830;50.978;5.058;2023-03-05T04:40:01;9.57;;;5.23;;
17424;SDS011;8830;50.978;5.058;2023-03-05T04:42:30;10.53;;;5.07;;
17424;SDS011;8830;50.978;5.058;2023-03-05T04:44:59;9.23;;;5.20;;
17424;SDS011;8830;50.978;5.058;2023-03-05T04:47:26;8.37;;;5.27;;
17424;SDS011;8830;50.978;5.058;2023-03-05T04:49:53;8.30;;;5.30;;
17424;SDS011;8830;50.978;5.058;2023-03-05T04:52:20;8.60;;;5.77;;
17424;SDS011;8830;50.978;5.058;2023-03-05T04:54:49;11.30;;;5.90;;
17424;SDS011;8830;50.978;5.058;2023-03-05T04:57:16;11.70;;;6.03;;
17424;SDS011;8830;50.978;5.058;2023-03-05T04:59:43;8.70;;;5.63;;
17424;SDS011;8830;50.978;5.058;2023-03-05T05:02:10;9.70;;;5.57;;
17424;SDS011;8830;50.978;5.058;2023-03-05T05:04:37;8.60;;;5.83;;
17424;SDS011;8830;50.978;5.058;2023-03-05T05:07:04;9.53;;;5.40;;
17424;SDS011;8830;50.978;5.058;2023-03-05T05:09:32;8.13;;;5.93;;
17424;SDS011;8830;50.978;5.058;2023-03-05T05:12:02;8.87;;;6.27;;
17424;SDS011;8830;50.978;5.058;2023-03-05T05:14:32;10.30;;;6.37;;
17424;SDS011;8830;50.978;5.058;2023-03-05T05:16:59;12.10;;;6.90;;
17424;SDS011;8830;50.978;5.058;2023-03-05T05:19:29;11.07;;;6.40;;
17424;SDS011;8830;50.978;5.058;2023-03-05T05:21:56;12.83;;;6.40;;
17424;SDS011;8830;50.978;5.058;2023-03-05T05:24:24;11.90;;;6.67;;
17424;SDS011;8830;50.978;5.058;2023-03-05T05:26:53;9.60;;;8.57;;
17424;SDS011;8830;50.978;5.058;2023-03-05T05:29:21;10.13;;;6.70;;
17424;SDS011;8830;50.978;5.058;2023-03-05T05:31:48;9.10;;;6.50;;
17424;SDS011;8830;50.978;5.058;2023-03-05T05:34:17;9.53;;;7.33;;
17424;SDS011;8830;50.978;5.058;2023-03-05T05:36:45;12.37;;;8.47;;
17424;SDS011;8830;50.978;5.058;2023-03-05T05:39:14;13.10;;;7.50;;
17424;SDS011;8830;50.978;5.058;2023-03-05T05:41:41;9.50;;;7.20;;
17424;SDS011;8830;50.978;5.058;2023-03-05T05:44:08;10.77;;;7.93;;
17424;SDS011;8830;50.978;5.058;2023-03-05T05:46:38;11.07;;;7.43;;
17424;SDS011;8830;50.978;5.058;2023-03-05T05:49:04;10.90;;;7.47;;
17424;SDS011;8830;50.978;5.058;2023-03-05T05:51:34;12.73;;;7.30;;
17424;SDS011;8830;50.978;5.058;2023-03-05T05:54:01;10.07;;;8.03;;
17424;SDS011;8830;50.978;5.058;2023-03-05T05:56:28;10.60;;;8.10;;
17424;SDS011;8830;50.978;5.058;2023-03-05T05:58:56;12.30;;;7.63;;
17424;SDS011;8830;50.978;5.058;2023-03-05T06:01:23;8.60;;;7.90;;
17424;SDS011;8830;50.978;5.058;2023-03-05T06:03:55;11.90;;;7.40;;
17424;SDS011;8830;50.978;5.058;2023-03-05T06:06:23;10.77;;;7.37;;
17424;SDS011;8830;50.978;5.058;2023-03-05T06:08:52;8.87;;;7.70;;
17424;SDS011;8830;50.978;5.058;2023-03-05T06:11:19;10.27;;;7.17;;
17424;SDS011;8830;50.978;5.058;2023-03-05T06:13:46;12.13;;;8.17;;
17424;SDS011;8830;50.978;5.058;2023-03-05T06:16:15;9.40;;;7.13;;
17424;SDS011;8830;50.978;5.058;2023-03-05T06:18:42;10.93;;;8.13;;
17424;SDS011;8830;50.978;5.058;2023-03-05T06:21:14;14.20;;;7.33;;
17424;SDS011;8830;50.978;5.058;2023-03-05T06:23:45;13.80;;;7.90;;
17424;SDS011;8830;50.978;5.058;2023-03-05T06:26:14;9.40;;;6.77;;
17424;SDS011;8830;50.978;5.058;2023-03-05T06:28:42;11.07;;;7.60;;
17424;SDS011;8830;50.978;5.058;2023-03-05T06:31:13;7.90;;;7.27;;
17424;SDS011;8830;50.978;5.058;2023-03-05T06:33:44;7.97;;;7.10;;
17424;SDS011;8830;50.978;5.058;2023-03-05T06:36:15;10.53;;;7.63;;
17424;SDS011;8830;50.978;5.058;2023-03-05T06:38:45;7.43;;;6.50;;
17424;SDS011;8830;50.978;5.058;2023-03-05T06:41:13;8.00;;;7.10;;
17424;SDS011;8830;50.978;5.058;2023-03-05T06:43:42;10.37;;;7.10;;
17424;SDS011;8830;50.978;5.058;2023-03-05T06:46:12;11.10;;;7.90;;
17424;SDS011;8830;50.978;5.058;2023-03-05T06:48:44;11.00;;;8.50;;
17424;SDS011;8830;50.978;5.058;2023-03-05T06:51:23;11.13;;;7.90;;
17424;SDS011;8830;50.978;5.058;2023-03-05T06:53:53;13.57;;;9.10;;
17424;SDS011;8830;50.978;5.058;2023-03-05T06:56:21;9.93;;;7.53;;
17424;SDS011;8830;50.978;5.058;2023-03-05T06:58:49;11.33;;;7.77;;
17424;SDS011;8830;50.978;5.058;2023-03-05T07:01:18;9.20;;;7.27;;
17424;SDS011;8830;50.978;5.058;2023-03-05T07:03:49;9.10;;;6.90;;
17424;SDS011;8830;50.978;5.058;2023-03-05T07:06:16;10.47;;;7.27;;
17424;SDS011;8830;50.978;5.058;2023-03-05T07:08:47;9.63;;;6.87;;
17424;SDS011;8830;50.978;5.058;2023-03-05T07:11:17;11.13;;;6.60;;
17424;SDS011;8830;50.978;5.058;2023-03-05T07:13:46;7.27;;;6.23;;
17424;SDS011;8830;50.978;5.058;2023-03-05T07:16:15;11.70;;;6.53;;
17424;SDS011;8830;50.978;5.058;2023-03-05T07:18:44;14.67;;;10.57;;
17424;SDS011;8830;50.978;5.058;2023-03-05T07:21:14;31.40;;;20.33;;
17424;SDS011;8830;50.978;5.058;2023-03-05T07:23:42;10.53;;;9.10;;
17424;SDS011;8830;50.978;5.058;2023-03-05T07:26:13;8.97;;;6.77;;
17424;SDS011;8830;50.978;5.058;2023-03-05T07:28:41;9.67;;;5.97;;
17424;SDS011;8830;50.978;5.058;2023-03-05T07:31:11;7.67;;;5.87;;
17424;SDS011;8830;50.978;5.058;2023-03-05T07:33:45;8.10;;;5.97;;
17424;SDS011;8830;50.978;5.058;2023-03-05T07:36:14;6.30;;;5.40;;
17424;SDS011;8830;50.978;5.058;2023-03-05T07:38:44;6.20;;;5.13;;
17424;SDS011;8830;50.978;5.058;2023-03-05T07:41:14;7.60;;;6.03;;
17424;SDS011;8830;50.978;5.058;2023-03-05T07:43:44;8.27;;;5.03;;
17424;SDS011;8830;50.978;5.058;2023-03-05T07:46:13;6.57;;;4.27;;
17424;SDS011;8830;50.978;5.058;2023-03-05T07:48:41;9.07;;;4.20;;
17424;SDS011;8830;50.978;5.058;2023-03-05T07:51:09;5.90;;;3.83;;
17424;SDS011;8830;50.978;5.058;2023-03-05T07:53:42;6.47;;;3.30;;
17424;SDS011;8830;50.978;5.058;2023-03-05T07:56:10;7.70;;;3.47;;
17424;SDS011;8830;50.978;5.058;2023-03-05T07:58:38;4.67;;;3.53;;
17424;SDS011;8830;50.978;5.058;2023-03-05T08:01:09;9.17;;;4.00;;
17424;SDS011;8830;50.978;5.058;2023-03-05T08:03:38;10.60;;;6.80;;
17424;SDS011;8830;50.978;5.058;2023-03-05T08:06:08;10.30;;;8.40;;
17424;SDS011;8830;50.978;5.058;2023-03-05T08:08:36;9.03;;;5.07;;
17424;SDS011;8830;50.978;5.058;2023-03-05T08:11:03;6.00;;;4.60;;
17424;SDS011;8830;50.978;5.058;2023-03-05T08:13:31;6.67;;;4.20;;
17424;SDS011;8830;50.978;5.058;2023-03-05T08:16:02;9.20;;;5.73;;
17424;SDS011;8830;50.978;5.058;2023-03-05T08:18:30;8.97;;;5.20;;
17424;SDS011;8830;50.978;5.058;2023-03-05T08:20:57;5.33;;;4.83;;
17424;SDS011;8830;50.978;5.058;2023-03-05T08:23:24;7.57;;;5.60;;
17424;SDS011;8830;50.978;5.058;2023-03-05T08:25:50;9.43;;;5.87;;
17424;SDS011;8830;50.978;5.058;2023-03-05T08:28:18;6.10;;;5.50;;
17424;SDS011;8830;50.978;5.058;2023-03-05T08:30:45;12.00;;;6.00;;
17424;SDS011;8830;50.978;5.058;2023-03-05T08:33:14;7.50;;;5.17;;
17424;SDS011;8830;50.978;5.058;2023-03-05T08:35:42;7.27;;;5.47;;
17424;SDS011;8830;50.978;5.058;2023-03-05T08:38:09;15.03;;;11.00;;
17424;SDS011;8830;50.978;5.058;2023-03-05T08:40:37;9.03;;;5.93;;
17424;SDS011;8830;50.978;5.058;2023-03-05T08:43:04;7.73;;;5.07;;
17424;SDS011;8830;50.978;5.058;2023-03-05T08:45:31;8.00;;;5.77;;
17424;SDS011;8830;50.978;5.058;2023-03-05T08:47:58;6.93;;;4.77;;
17424;SDS011;8830;50.978;5.058;2023-03-05T08:50:26;7.20;;;5.60;;
17424;SDS011;8830;50.978;5.058;2023-03-05T08:52:54;6.20;;;4.07;;
17424;SDS011;8830;50.978;5.058;2023-03-05T08:55:22;8.27;;;5.23;;
17424;SDS011;8830;50.978;5.058;2023-03-05T08:57:49;5.30;;;4.77;;
17424;SDS011;8830;50.978;5.058;2023-03-05T09:00:17;8.23;;;6.17;;
17424;SDS011;8830;50.978;5.058;2023-03-05T09:02:44;10.03;;;6.83;;
17424;SDS011;8830;50.978;5.058;2023-03-05T09:05:11;18.90;;;14.60;;
17424;SDS011;8830;50.978;5.058;2023-03-05T09:07:42;7.00;;;6.30;;
17424;SDS011;8830;50.978;5.058;2023-03-05T09:10:10;6.17;;;5.57;;
17424;SDS011;8830;50.978;5.058;2023-03-05T09:12:39;7.17;;;4.97;;
17424;SDS011;8830;50.978;5.058;2023-03-05T09:15:07;7.27;;;4.40;;
17424;SDS011;8830;50.978;5.058;2023-03-05T09:17:35;7.20;;;5.43;;
17424;SDS011;8830;50.978;5.058;2023-03-05T09:20:06;7.73;;;5.23;;
17424;SDS011;8830;50.978;5.058;2023-03-05T09:22:37;9.70;;;6.60;;
17424;SDS011;8830;50.978;5.058;2023-03-05T09:25:06;6.50;;;5.90;;
17424;SDS011;8830;50.978;5.058;2023-03-05T09:27:34;7.60;;;6.03;;
17424;SDS011;8830;50.978;5.058;2023-03-05T09:30:08;6.57;;;6.03;;
17424;SDS011;8830;50.978;5.058;2023-03-05T09:32:38;9.03;;;7.13;;
17424;SDS011;8830;50.978;5.058;2023-03-05T09:35:06;8.07;;;7.37;;
17424;SDS011;8830;50.978;5.058;2023-03-05T09:37:34;7.77;;;6.37;;
17424;SDS011;8830;50.978;5.058;2023-03-05T09:40:02;7.57;;;6.13;;
17424;SDS011;8830;50.978;5.058;2023-03-05T09:42:40;7.00;;;6.30;;
17424;SDS011;8830;50.978;5.058;2023-03-05T09:45:17;6.87;;;6.13;;
17424;SDS011;8830;50.978;5.058;2023-03-05T09:47:52;6.97;;;5.83;;
17424;SDS011;8830;50.978;5.058;2023-03-05T09:50:36;5.67;;;5.17;;
17424;SDS011;8830;50.978;5.058;2023-03-05T09:53:07;5.77;;;5.17;;
17424;SDS011;8830;50.978;5.058;2023-03-05T09:55:42;5.70;;;5.17;;
17424;SDS011;8830;50.978;5.058;2023-03-05T09:58:14;6.17;;;5.03;;
17424;SDS011;8830;50.978;5.058;2023-03-05T10:00:44;4.83;;;4.47;;
17424;SDS011;8830;50.978;5.058;2023-03-05T10:03:15;5.67;;;4.40;;
17424;SDS011;8830;50.978;5.058;2023-03-05T10:05:47;4.43;;;4.03;;
17424;SDS011;8830;50.978;5.058;2023-03-05T10:08:23;8.10;;;5.00;;
17424;SDS011;8830;50.978;5.058;2023-03-05T10:10:58;3.90;;;3.60;;
17424;SDS011;8830;50.978;5.058;2023-03-05T10:13:37;4.60;;;4.20;;
17424;SDS011;8830;50.978;5.058;2023-03-05T10:16:12;3.90;;;3.60;;
17424;SDS011;8830;50.978;5.058;2023-03-05T10:19:03;5.90;;;5.00;;
17424;SDS011;8830;50.978;5.058;2023-03-05T10:21:37;18.40;;;10.20;;
17424;SDS011;8830;50.978;5.058;2023-03-05T10:24:09;9.03;;;5.10;;
17424;SDS011;8830;50.978;5.058;2023-03-05T10:26:49;5.00;;;4.30;;
17424;SDS011;8830;50.978;5.058;2023-03-05T10:29:37;6.60;;;3.80;;
17424;SDS011;8830;50.978;5.058;2023-03-05T10:32:16;15.27;;;10.60;;
17424;SDS011;8830;50.978;5.058;2023-03-05T10:35:03;30.17;;;17.83;;
17424;SDS011;8830;50.978;5.058;2023-03-05T10:37:55;9.43;;;7.67;;
17424;SDS011;8830;50.978;5.058;2023-03-05T10:40:40;6.63;;;5.77;;
17424;SDS011;8830;50.978;5.058;2023-03-05T10:43:14;7.37;;;5.43;;
17424;SDS011;8830;50.978;5.058;2023-03-05T10:45:51;4.90;;;4.40;;
17424;SDS011;8830;50.978;5.058;2023-03-05T10:48:23;7.10;;;4.40;;
17424;SDS011;8830;50.978;5.058;2023-03-05T10:50:55;3.50;;;3.20;;
17424;SDS011;8830;50.978;5.058;2023-03-05T10:53:27;3.90;;;3.50;;
17424;SDS011;8830;50.978;5.058;2023-03-05T10:55:59;3.10;;;2.80;;
17424;SDS011;8830;50.978;5.058;2023-03-05T10:58:27;3.90;;;2.70;;
17424;SDS011;8830;50.978;5.058;2023-03-05T11:01:00;6.27;;;2.97;;
17424;SDS011;8830;50.978;5.058;2023-03-05T11:03:46;2.40;;;1.93;;
17424;SDS011;8830;50.978;5.058;2023-03-05T11:06:25;2.83;;;1.67;;
17424;SDS011;8830;50.978;5.058;2023-03-05T11:09:14;4.77;;;2.10;;
17424;SDS011;8830;50.978;5.058;2023-03-05T11:12:01;11.30;;;2.23;;
17424;SDS011;8830;50.978;5.058;2023-03-05T11:14:40;3.50;;;2.07;;
17424;SDS011;8830;50.978;5.058;2023-03-05T11:17:23;6.57;;;1.93;;
17424;SDS011;8830;50.978;5.058;2023-03-05T11:19:52;6.43;;;2.63;;
17424;SDS011;8830;50.978;5.058;2023-03-05T11:22:21;6.33;;;2.57;;
17424;SDS011;8830;50.978;5.058;2023-03-05T11:25:02;4.93;;;3.07;;
17424;SDS011;8830;50.978;5.058;2023-03-05T11:27:38;4.23;;;3.00;;
17424;SDS011;8830;50.978;5.058;2023-03-05T11:30:20;9.30;;;3.67;;
17424;SDS011;8830;50.978;5.058;2023-03-05T11:32:55;3.33;;;3.03;;
17424;SDS011;8830;50.978;5.058;2023-03-05T11:35:33;4.10;;;3.70;;
17424;SDS011;8830;50.978;5.058;2023-03-05T11:38:02;3.93;;;3.53;;
17424;SDS011;8830;50.978;5.058;2023-03-05T11:40:30;3.80;;;3.10;;
17424;SDS011;8830;50.978;5.058;2023-03-05T11:43:00;5.33;;;3.20;;
17424;SDS011;8830;50.978;5.058;2023-03-05T11:45:29;3.70;;;3.03;;
17424;SDS011;8830;50.978;5.058;2023-03-05T11:48:03;8.80;;;5.17;;
17424;SDS011;8830;50.978;5.058;2023-03-05T11:50:34;8.70;;;7.00;;
17424;SDS011;8830;50.978;5.058;2023-03-05T11:53:09;8.43;;;5.23;;
17424;SDS011;8830;50.978;5.058;2023-03-05T11:55:39;7.73;;;7.03;;
17424;SDS011;8830;50.978;5.058;2023-03-05T11:58:13;3.43;;;2.77;;
17424;SDS011;8830;50.978;5.058;2023-03-05T12:00:49;3.80;;;3.50;;
17424;SDS011;8830;50.978;5.058;2023-03-05T12:03:19;5.53;;;3.43;;
17424;SDS011;8830;50.978;5.058;2023-03-05T12:05:49;2.50;;;2.30;;
17424;SDS011;8830;50.978;5.058;2023-03-05T12:08:20;4.23;;;2.93;;
17424;SDS011;8830;50.978;5.058;2023-03-05T12:10:51;10.80;;;4.23;;
17424;SDS011;8830;50.978;5.058;2023-03-05T12:13:20;5.33;;;2.50;;
17424;SDS011;8830;50.978;5.058;2023-03-05T12:15:59;4.90;;;3.27;;
17424;SDS011;8830;50.978;5.058;2023-03-05T12:18:42;3.73;;;2.43;;
17424;SDS011;8830;50.978;5.058;2023-03-05T12:21:23;2.67;;;2.07;;
17424;SDS011;8830;50.978;5.058;2023-03-05T12:23:57;2.63;;;2.40;;
17424;SDS011;8830;50.978;5.058;2023-03-05T12:26:53;7.33;;;2.63;;
17424;SDS011;8830;50.978;5.058;2023-03-05T12:29:27;3.73;;;2.50;;
17424;SDS011;8830;50.978;5.058;2023-03-05T12:31:56;2.60;;;2.40;;
17424;SDS011;8830;50.978;5.058;2023-03-05T12:34:40;5.20;;;2.30;;
17424;SDS011;8830;50.978;5.058;2023-03-05T12:40:19;4.50;;;2.50;;
17424;SDS011;8830;50.978;5.058;2023-03-05T12:42:54;3.77;;;2.03;;
17424;SDS011;8830;50.978;5.058;2023-03-05T12:45:23;6.60;;;2.77;;
17424;SDS011;8830;50.978;5.058;2023-03-05T12:51:14;2.63;;;2.40;;
17424;SDS011;8830;50.978;5.058;2023-03-05T12:53:55;2.63;;;2.20;;
17424;SDS011;8830;50.978;5.058;2023-03-05T12:56:25;3.07;;;2.23;;
17424;SDS011;8830;50.978;5.058;2023-03-05T12:58:57;2.53;;;2.33;;
17424;SDS011;8830;50.978;5.058;2023-03-05T13:01:31;2.70;;;2.23;;
17424;SDS011;8830;50.978;5.058;2023-03-05T13:04:11;2.83;;;2.03;;
17424;SDS011;8830;50.978;5.058;2023-03-05T13:06:46;3.57;;;1.80;;
17424;SDS011;8830;50.978;5.058;2023-03-05T13:09:23;7.03;;;2.10;;
17424;SDS011;8830;50.978;5.058;2023-03-05T13:11:52;2.93;;;1.77;;
17424;SDS011;8830;50.978;5.058;2023-03-05T13:14:34;2.23;;;2.00;;
17424;SDS011;8830;50.978;5.058;2023-03-05T13:19:55;2.57;;;2.20;;
17424;SDS011;8830;50.978;5.058;2023-03-05T13:22:25;4.77;;;2.70;;
17424;SDS011;8830;50.978;5.058;2023-03-05T13:27:38;4.03;;;2.93;;
17424;SDS011;8830;50.978;5.058;2023-03-05T13:30:18;2.27;;;2.07;;
17424;SDS011;8830;50.978;5.058;2023-03-05T13:32:48;2.37;;;2.10;;
17424;SDS011;8830;50.978;5.058;2023-03-05T13:35:15;3.03;;;2.27;;
17424;SDS011;8830;50.978;5.058;2023-03-05T13:37:45;3.10;;;2.13;;
17424;SDS011;8830;50.978;5.058;2023-03-05T13:40:15;3.37;;;3.00;;
17424;SDS011;8830;50.978;5.058;2023-03-05T13:42:48;3.90;;;3.17;;
17424;SDS011;8830;50.978;5.058;2023-03-05T13:45:21;3.47;;;3.27;;
17424;SDS011;8830;50.978;5.058;2023-03-05T13:47:51;4.23;;;3.60;;
17424;SDS011;8830;50.978;5.058;2023-03-05T13:50:21;3.67;;;3.37;;
17424;SDS011;8830;50.978;5.058;2023-03-05T13:52:51;7.10;;;6.60;;
17424;SDS011;8830;50.978;5.058;2023-03-05T13:55:18;3.57;;;3.27;;
17424;SDS011;8830;50.978;5.058;2023-03-05T13:57:47;5.47;;;3.23;;
17424;SDS011;8830;50.978;5.058;2023-03-05T14:00:32;4.97;;;3.20;;
17424;SDS011;8830;50.978;5.058;2023-03-05T14:03:06;3.73;;;3.43;;
17424;SDS011;8830;50.978;5.058;2023-03-05T14:05:35;2.70;;;2.40;;
17424;SDS011;8830;50.978;5.058;2023-03-05T14:08:03;3.43;;;2.67;;
17424;SDS011;8830;50.978;5.058;2023-03-05T14:10:32;4.27;;;2.57;;
17424;SDS011;8830;50.978;5.058;2023-03-05T14:13:02;6.60;;;2.20;;
17424;SDS011;8830;50.978;5.058;2023-03-05T14:15:31;3.07;;;2.40;;
17424;SDS011;8830;50.978;5.058;2023-03-05T14:18:06;2.27;;;2.03;;
17424;SDS011;8830;50.978;5.058;2023-03-05T14:20:56;4.60;;;2.40;;
17424;SDS011;8830;50.978;5.058;2023-03-05T14:23:30;3.83;;;2.43;;
17424;SDS011;8830;50.978;5.058;2023-03-05T14:26:12;3.93;;;2.47;;
17424;SDS011;8830;50.978;5.058;2023-03-05T14:28:49;2.63;;;2.37;;
17424;SDS011;8830;50.978;5.058;2023-03-05T14:31:19;4.17;;;3.07;;
17424;SDS011;8830;50.978;5.058;2023-03-05T14:33:47;3.27;;;2.97;;
17424;SDS011;8830;50.978;5.058;2023-03-05T14:36:22;3.97;;;3.67;;
17424;SDS011;8830;50.978;5.058;2023-03-05T14:38:55;3.73;;;3.43;;
17424;SDS011;8830;50.978;5.058;2023-03-05T14:41:31;4.53;;;3.90;;
17424;SDS011;8830;50.978;5.058;2023-03-05T14:44:07;3.73;;;3.43;;
17424;SDS011;8830;50.978;5.058;2023-03-05T14:46:39;3.47;;;3.00;;
17424;SDS011;8830;50.978;5.058;2023-03-05T14:49:06;3.70;;;3.07;;
17424;SDS011;8830;50.978;5.058;2023-03-05T14:51:36;5.63;;;2.50;;
17424;SDS011;8830;50.978;5.058;2023-03-05T14:54:17;5.27;;;2.17;;
17424;SDS011;8830;50.978;5.058;2023-03-05T14:56:46;4.73;;;2.67;;
17424;SDS011;8830;50.978;5.058;2023-03-05T14:59:14;2.53;;;2.00;;
17424;SDS011;8830;50.978;5.058;2023-03-05T15:01:41;11.50;;;5.03;;
17424;SDS011;8830;50.978;5.058;2023-03-05T15:04:09;3.93;;;2.37;;
17424;SDS011;8830;50.978;5.058;2023-03-05T15:06:36;5.70;;;2.30;;
17424;SDS011;8830;50.978;5.058;2023-03-05T15:09:10;4.27;;;2.30;;
17424;SDS011;8830;50.978;5.058;2023-03-05T15:11:43;4.13;;;2.17;;
17424;SDS011;8830;50.978;5.058;2023-03-05T15:14:10;4.73;;;2.70;;
17424;SDS011;8830;50.978;5.058;2023-03-05T15:16:38;4.67;;;2.60;;
17424;SDS011;8830;50.978;5.058;2023-03-05T15:19:09;5.97;;;2.80;;
17424;SDS011;8830;50.978;5.058;2023-03-05T15:21:38;4.63;;;3.80;;
17424;SDS011;8830;50.978;5.058;2023-03-05T15:24:05;17.77;;;8.47;;
17424;SDS011;8830;50.978;5.058;2023-03-05T15:26:32;12.80;;;7.40;;
17424;SDS011;8830;50.978;5.058;2023-03-05T15:29:03;10.60;;;6.97;;
17424;SDS011;8830;50.978;5.058;2023-03-05T15:31:30;2.83;;;2.07;;